sensor_id;sensor_type;location;lat;lon;timestamp;pressure;altitude;pressure_sealevel;temperature;humidity
17260;BME280;8746;49.230;9.220;2023-03-18T00:00:40;99489.38;;;7.38;100.00
17260;BME280;8746;49.230;9.220;2023-03-18T00:03:06;99486.94;;;7.32;100.00
17260;BME280;8746;49.230;9.220;2023-03-18T00:05:33;99489.81;;;7.24;100.00
17260;BME280;8746;49.230;9.220;2023-03-18T00:07:59;99491.25;;;7.34;100.00
17260;BME280;8746;49.230;9.220;2023-03-18T00:10:25;99489.44;;;7.10;100.00
17260;BME280;8746;49.230;9.220;2023-03-18T00:12:50;99484.44;;;7.02;100.00
17260;BME280;8746;49.230;9.220;2023-03-18T00:15:17;99490.78;;;6.95;100.00
17260;BME280;8746;49.230;9.220;2023-03-18T00:17:44;99484.69;;;6.94;100.00
17260;BME280;8746;49.230;9.220;2023-03-18T00:20:10;99487.47;;;6.89;100.00
17260;BME280;8746;49.230;9.220;2023-03-18T00:22:37;99488.34;;;6.90;100.00
17260;BME280;8746;49.230;9.220;2023-03-18T00:25:05;99496.00;;;6.96;100.00
17260;BME280;8746;49.230;9.220;2023-03-18T00:27:32;99505.34;;;7.05;100.00
17260;BME280;8746;49.230;9.220;2023-03-18T00:29:57;99502.66;;;7.06;100.00
17260;BME280;8746;49.230;9.220;2023-03-18T00:32:25;99505.00;;;7.14;100.00
17260;BME280;8746;49.230;9.220;2023-03-18T00:34:52;99512.25;;;7.08;100.00
17260;BME280;8746;49.230;9.220;2023-03-18T00:37:17;99513.91;;;7.10;100.00
17260;BME280;8746;49.230;9.220;2023-03-18T00:40:05;99509.13;;;6.96;100.00
17260;BME280;8746;49.230;9.220;2023-03-18T00:42:37;99509.91;;;6.98;100.00
17260;BME280;8746;49.230;9.220;2023-03-18T00:45:09;99516.06;;;6.97;100.00
17260;BME280;8746;49.230;9.220;2023-03-18T00:47:37;99509.25;;;6.92;100.00
17260;BME280;8746;49.230;9.220;2023-03-18T00:50:04;99520.97;;;6.80;100.00
17260;BME280;8746;49.230;9.220;2023-03-18T00:52:30;99518.97;;;6.88;100.00
17260;BME280;8746;49.230;9.220;2023-03-18T00:54:56;99523.47;;;6.84;100.00
17260;BME280;8746;49.230;9.220;2023-03-18T00:57:21;99521.66;;;6.86;100.00
17260;BME280;8746;49.230;9.220;2023-03-18T00:59:48;99518.31;;;6.81;100.00
17260;BME280;8746;49.230;9.220;2023-03-18T01:02:14;99518.22;;;6.84;100.00
17260;BME280;8746;49.230;9.220;2023-03-18T01:04:39;99515.94;;;6.73;100.00
17260;BME280;8746;49.230;9.220;2023-03-18T01:07:05;99520.13;;;6.79;100.00
17260;BME280;8746;49.230;9.220;2023-03-18T01:09:31;99510.56;;;6.78;100.00
17260;BME280;8746;49.230;9.220;2023-03-18T01:11:56;99510.50;;;6.80;100.00
17260;BME280;8746;49.230;9.220;2023-03-18T01:14:21;99515.09;;;6.73;100.00
17260;BME280;8746;49.230;9.220;2023-03-18T01:16:47;99514.31;;;6.69;100.00
17260;BME280;8746;49.230;9.220;2023-03-18T01:19:13;99517.91;;;6.67;100.00
17260;BME280;8746;49.230;9.220;2023-03-18T01:21:39;99508.97;;;6.72;100.00
17260;BME280;8746;49.230;9.220;2023-03-18T01:24:04;99508.41;;;6.63;100.00
17260;BME280;8746;49.230;9.220;2023-03-18T01:26:30;99513.56;;;6.66;100.00
17260;BME280;8746;49.230;9.220;2023-03-18T01:28:55;99509.09;;;6.69;100.00
17260;BME280;8746;49.230;9.220;2023-03-18T01:31:21;99506.59;;;6.65;100.00
17260;BME280;8746;49.230;9.220;2023-03-18T01:33:48;99519.47;;;6.72;100.00
17260;BME280;8746;49.230;9.220;2023-03-18T01:36:14;99510.84;;;6.69;100.00
17260;BME280;8746;49.230;9.220;2023-03-18T01:38:39;99512.66;;;6.67;100.00
17260;BME280;8746;49.230;9.220;2023-03-18T01:41:06;99517.16;;;6.62;100.00
17260;BME280;8746;49.230;9.220;2023-03-18T01:43:34;99521.44;;;6.66;100.00
17260;BME280;8746;49.230;9.220;2023-03-18T01:46:22;99518.88;;;6.63;100.00
17260;BME280;8746;49.230;9.220;2023-03-18T01:48:46;99522.47;;;6.60;100.00
17260;BME280;8746;49.230;9.220;2023-03-18T01:51:12;99522.00;;;6.47;100.00
17260;BME280;8746;49.230;9.220;2023-03-18T01:53:42;99518.50;;;6.47;100.00
17260;BME280;8746;49.230;9.220;2023-03-18T01:56:10;99527.19;;;6.49;100.00
17260;BME280;8746;49.230;9.220;2023-03-18T01:58:42;99528.94;;;6.48;100.00
17260;BME280;8746;49.230;9.220;2023-03-18T02:01:19;99526.22;;;6.51;100.00
17260;BME280;8746;49.230;9.220;2023-03-18T02:03:48;99522.78;;;6.49;100.00
17260;BME280;8746;49.230;9.220;2023-03-18T02:06:15;99530.69;;;6.48;100.00
17260;BME280;8746;49.230;9.220;2023-03-18T02:08:40;99534.34;;;6.42;100.00
17260;BME280;8746;49.230;9.220;2023-03-18T02:11:07;99536.13;;;6.41;100.00
17260;BME280;8746;49.230;9.220;2023-03-18T02:13:38;99530.88;;;6.41;100.00
17260;BME280;8746;49.230;9.220;2023-03-18T02:16:33;99528.50;;;6.34;100.00
17260;BME280;8746;49.230;9.220;2023-03-18T02:19:06;99535.44;;;6.35;100.00
17260;BME280;8746;49.230;9.220;2023-03-18T02:21:52;99535.44;;;6.35;100.00
17260;BME280;8746;49.230;9.220;2023-03-18T02:27:27;99534.59;;;6.34;100.00
17260;BME280;8746;49.230;9.220;2023-03-18T02:29:58;99534.50;;;6.37;100.00
17260;BME280;8746;49.230;9.220;2023-03-18T02:32:29;99535.53;;;6.32;100.00
17260;BME280;8746;49.230;9.220;2023-03-18T02:34:56;99541.03;;;6.22;100.00
17260;BME280;8746;49.230;9.220;2023-03-18T02:37:24;99541.81;;;6.26;100.00
17260;BME280;8746;49.230;9.220;2023-03-18T02:39:49;99539.25;;;6.24;100.00
17260;BME280;8746;49.230;9.220;2023-03-18T02:42:27;99537.44;;;6.27;100.00
17260;BME280;8746;49.230;9.220;2023-03-18T02:44:52;99531.50;;;6.20;100.00
17260;BME280;8746;49.230;9.220;2023-03-18T02:47:19;99538.53;;;6.18;100.00
17260;BME280;8746;49.230;9.220;2023-03-18T02:49:46;99535.97;;;6.16;100.00
17260;BME280;8746;49.230;9.220;2023-03-18T02:52:12;99537.03;;;6.11;100.00
17260;BME280;8746;49.230;9.220;2023-03-18T02:54:37;99543.28;;;6.05;100.00
17260;BME280;8746;49.230;9.220;2023-03-18T02:57:03;99532.81;;;6.05;100.00
17260;BME280;8746;49.230;9.220;2023-03-18T02:59:28;99540.78;;;6.00;100.00
17260;BME280;8746;49.230;9.220;2023-03-18T03:01:54;99541.81;;;5.94;100.00
17260;BME280;8746;49.230;9.220;2023-03-18T03:04:22;99545.56;;;5.84;100.00
17260;BME280;8746;49.230;9.220;2023-03-18T03:06:48;99551.69;;;5.83;100.00
17260;BME280;8746;49.230;9.220;2023-03-18T03:09:15;99551.75;;;5.82;100.00
17260;BME280;8746;49.230;9.220;2023-03-18T03:11:42;99551.78;;;5.80;100.00
17260;BME280;8746;49.230;9.220;2023-03-18T03:14:08;99559.66;;;5.80;100.00
17260;BME280;8746;49.230;9.220;2023-03-18T03:16:34;99558.00;;;5.76;100.00
17260;BME280;8746;49.230;9.220;2023-03-18T03:19:01;99560.59;;;5.76;100.00
17260;BME280;8746;49.230;9.220;2023-03-18T03:21:26;99556.16;;;5.80;100.00
17260;BME280;8746;49.230;9.220;2023-03-18T03:23:52;99557.09;;;5.77;100.00
17260;BME280;8746;49.230;9.220;2023-03-18T03:26:19;99550.19;;;5.74;100.00
17260;BME280;8746;49.230;9.220;2023-03-18T03:28:44;99558.81;;;5.78;100.00
17260;BME280;8746;49.230;9.220;2023-03-18T03:31:10;99561.66;;;5.69;100.00
17260;BME280;8746;49.230;9.220;2023-03-18T03:33:39;99567.06;;;5.62;100.00
17260;BME280;8746;49.230;9.220;2023-03-18T03:36:10;99564.50;;;5.61;100.00
17260;BME280;8746;49.230;9.220;2023-03-18T03:38:37;99568.00;;;5.61;100.00
17260;BME280;8746;49.230;9.220;2023-03-18T03:41:05;99572.56;;;5.52;100.00
17260;BME280;8746;49.230;9.220;2023-03-18T03:43:31;99567.59;;;5.42;100.00
17260;BME280;8746;49.230;9.220;2023-03-18T03:45:58;99558.13;;;5.37;100.00
17260;BME280;8746;49.230;9.220;2023-03-18T03:48:23;99563.34;;;5.38;100.00
17260;BME280;8746;49.230;9.220;2023-03-18T03:50:49;99564.25;;;5.36;100.00
17260;BME280;8746;49.230;9.220;2023-03-18T03:53:15;99562.56;;;5.35;100.00
17260;BME280;8746;49.230;9.220;2023-03-18T03:55:40;99568.63;;;5.35;100.00
17260;BME280;8746;49.230;9.220;2023-03-18T03:58:06;99571.13;;;5.40;100.00
17260;BME280;8746;49.230;9.220;2023-03-18T04:00:33;99574.44;;;5.46;100.00
17260;BME280;8746;49.230;9.220;2023-03-18T04:02:58;99578.69;;;5.52;100.00
17260;BME280;8746;49.230;9.220;2023-03-18T04:05:24;99571.06;;;5.43;100.00
17260;BME280;8746;49.230;9.220;2023-03-18T04:07:50;99564.19;;;5.39;100.00
17260;BME280;8746;49.230;9.220;2023-03-18T04:10:18;99567.00;;;5.31;100.00
17260;BME280;8746;49.230;9.220;2023-03-18T04:12:45;99572.25;;;5.29;100.00
17260;BME280;8746;49.230;9.220;2023-03-18T04:15:12;99572.28;;;5.28;100.00
17260;BME280;8746;49.230;9.220;2023-03-18T04:17:38;99583.47;;;5.35;100.00
17260;BME280;8746;49.230;9.220;2023-03-18T04:20:05;99576.09;;;5.14;100.00
17260;BME280;8746;49.230;9.220;2023-03-18T04:22:31;99576.03;;;5.18;100.00
17260;BME280;8746;49.230;9.220;2023-03-18T04:24:56;99578.72;;;5.14;100.00
17260;BME280;8746;49.230;9.220;2023-03-18T04:27:22;99586.72;;;5.08;100.00
17260;BME280;8746;49.230;9.220;2023-03-18T04:29:48;99585.88;;;5.08;100.00
17260;BME280;8746;49.230;9.220;2023-03-18T04:32:13;99577.88;;;5.12;100.00
17260;BME280;8746;49.230;9.220;2023-03-18T04:34:39;99582.56;;;5.00;100.00
17260;BME280;8746;49.230;9.220;2023-03-18T04:37:04;99588.63;;;5.02;100.00
17260;BME280;8746;49.230;9.220;2023-03-18T04:39:30;99580.13;;;4.92;100.00
17260;BME280;8746;49.230;9.220;2023-03-18T04:41:55;99588.13;;;4.84;100.00
17260;BME280;8746;49.230;9.220;2023-03-18T04:44:24;99589.94;;;4.82;100.00
17260;BME280;8746;49.230;9.220;2023-03-18T04:46:50;99591.84;;;4.74;100.00
17260;BME280;8746;49.230;9.220;2023-03-18T04:49:18;99584.72;;;4.80;100.00
17260;BME280;8746;49.230;9.220;2023-03-18T04:51:44;99590.09;;;4.74;100.00
17260;BME280;8746;49.230;9.220;2023-03-18T04:54:10;99590.09;;;4.74;100.00
17260;BME280;8746;49.230;9.220;2023-03-18T04:56:36;99598.75;;;4.76;100.00
17260;BME280;8746;49.230;9.220;2023-03-18T04:59:03;99597.84;;;4.79;100.00
17260;BME280;8746;49.230;9.220;2023-03-18T05:01:28;99597.78;;;4.82;100.00
17260;BME280;8746;49.230;9.220;2023-03-18T05:03:53;99597.00;;;4.77;100.00
17260;BME280;8746;49.230;9.220;2023-03-18T05:06:24;99596.38;;;4.65;100.00
17260;BME280;8746;49.230;9.220;2023-03-18T05:08:51;99600.72;;;4.67;100.00
17260;BME280;8746;49.230;9.220;2023-03-18T05:11:17;99601.69;;;4.61;100.00
17260;BME280;8746;49.230;9.220;2023-03-18T05:13:43;99597.53;;;4.52;100.00
17260;BME280;8746;49.230;9.220;2023-03-18T05:16:09;99598.50;;;4.46;100.00
17260;BME280;8746;49.230;9.220;2023-03-18T05:18:36;99596.91;;;4.41;100.00
17260;BME280;8746;49.230;9.220;2023-03-18T05:21:02;99596.09;;;4.37;100.00
17260;BME280;8746;49.230;9.220;2023-03-18T05:23:27;99595.22;;;4.38;100.00
17260;BME280;8746;49.230;9.220;2023-03-18T05:25:53;99603.19;;;4.30;100.00
17260;BME280;8746;49.230;9.220;2023-03-18T05:28:19;99609.22;;;4.34;100.00
17260;BME280;8746;49.230;9.220;2023-03-18T05:30:44;99599.50;;;4.41;100.00
17260;BME280;8746;49.230;9.220;2023-03-18T05:33:09;99604.88;;;4.35;100.00
17260;BME280;8746;49.230;9.220;2023-03-18T05:35:35;99600.56;;;4.30;100.00
17260;BME280;8746;49.230;9.220;2023-03-18T05:38:01;99608.53;;;4.26;100.00
17260;BME280;8746;49.230;9.220;2023-03-18T05:40:26;99602.38;;;4.27;100.00
17260;BME280;8746;49.230;9.220;2023-03-18T05:42:51;99608.59;;;4.21;100.00
17260;BME280;8746;49.230;9.220;2023-03-18T05:45:17;99607.81;;;4.17;100.00
17260;BME280;8746;49.230;9.220;2023-03-18T05:47:42;99605.31;;;4.10;100.00
17260;BME280;8746;49.230;9.220;2023-03-18T05:50:08;99615.00;;;4.05;100.00
17260;BME280;8746;49.230;9.220;2023-03-18T05:52:35;99604.56;;;4.05;100.00
17260;BME280;8746;49.230;9.220;2023-03-18T05:55:00;99599.28;;;4.08;100.00
17260;BME280;8746;49.230;9.220;2023-03-18T05:57:26;99601.91;;;4.08;100.00
17260;BME280;8746;49.230;9.220;2023-03-18T05:59:52;99605.22;;;4.16;100.00
17260;BME280;8746;49.230;9.220;2023-03-18T06:02:17;99597.41;;;4.14;100.00
17260;BME280;8746;49.230;9.220;2023-03-18T06:04:43;99605.16;;;4.19;100.00
17260;BME280;8746;49.230;9.220;2023-03-18T06:07:08;99609.56;;;4.15;100.00
17260;BME280;8746;49.230;9.220;2023-03-18T06:09:33;99618.25;;;4.17;100.00
17260;BME280;8746;49.230;9.220;2023-03-18T06:11:58;99624.31;;;4.18;100.00
17260;BME280;8746;49.230;9.220;2023-03-18T06:14:24;99618.19;;;4.21;100.00
17260;BME280;8746;49.230;9.220;2023-03-18T06:16:56;99620.66;;;4.28;100.00
17260;BME280;8746;49.230;9.220;2023-03-18T06:19:22;99621.59;;;4.24;100.00
17260;BME280;8746;49.230;9.220;2023-03-18T06:21:47;99626.03;;;4.19;100.00
17260;BME280;8746;49.230;9.220;2023-03-18T06:24:13;99622.47;;;4.25;100.00
17260;BME280;8746;49.230;9.220;2023-03-18T06:26:40;99623.19;;;4.31;100.00
17260;BME280;8746;49.230;9.220;2023-03-18T06:29:05;99633.59;;;4.35;100.00
17260;BME280;8746;49.230;9.220;2023-03-18T06:31:32;99625.44;;;4.50;100.00
17260;BME280;8746;49.230;9.220;2023-03-18T06:33:57;99625.06;;;4.69;100.00
17260;BME280;8746;49.230;9.220;2023-03-18T06:36:23;99629.00;;;4.88;100.00
17260;BME280;8746;49.230;9.220;2023-03-18T06:38:48;99628.59;;;5.07;100.00
17260;BME280;8746;49.230;9.220;2023-03-18T06:41:13;99632.66;;;5.20;100.00
17260;BME280;8746;49.230;9.220;2023-03-18T06:43:40;99634.06;;;5.34;100.00
17260;BME280;8746;49.230;9.220;2023-03-18T06:46:06;99638.97;;;5.48;100.00
17260;BME280;8746;49.230;9.220;2023-03-18T06:48:31;99635.09;;;5.62;100.00
17260;BME280;8746;49.230;9.220;2023-03-18T06:50:58;99643.88;;;5.61;100.00
17260;BME280;8746;49.230;9.220;2023-03-18T06:53:24;99639.97;;;5.78;100.00
17260;BME280;8746;49.230;9.220;2023-03-18T06:55:49;99641.38;;;5.91;100.00
17260;BME280;8746;49.230;9.220;2023-03-18T06:58:14;99646.41;;;6.01;100.00
17260;BME280;8746;49.230;9.220;2023-03-18T07:00:41;99641.22;;;5.98;100.00
17260;BME280;8746;49.230;9.220;2023-03-18T07:03:09;99645.31;;;6.08;100.00
17260;BME280;8746;49.230;9.220;2023-03-18T07:05:35;99646.97;;;6.12;100.00
17260;BME280;8746;49.230;9.220;2023-03-18T07:08:00;99649.59;;;6.12;100.00
17260;BME280;8746;49.230;9.220;2023-03-18T07:10:28;99642.88;;;6.02;100.00
17260;BME280;8746;49.230;9.220;2023-03-18T07:12:54;99641.06;;;6.04;100.00
17260;BME280;8746;49.230;9.220;2023-03-18T07:15:21;99644.25;;;6.15;100.00
17260;BME280;8746;49.230;9.220;2023-03-18T07:17:48;99644.09;;;6.21;100.00
17260;BME280;8746;49.230;9.220;2023-03-18T07:20:13;99643.19;;;6.22;100.00
17260;BME280;8746;49.230;9.220;2023-03-18T07:22:40;99643.03;;;6.29;100.00
17260;BME280;8746;49.230;9.220;2023-03-18T07:25:06;99641.88;;;6.39;100.00
17260;BME280;8746;49.230;9.220;2023-03-18T07:27:32;99647.03;;;6.42;100.00
17260;BME280;8746;49.230;9.220;2023-03-18T07:29:57;99646.19;;;6.41;100.00
17260;BME280;8746;49.230;9.220;2023-03-18T07:32:23;99647.97;;;6.71;100.00
17260;BME280;8746;49.230;9.220;2023-03-18T07:34:48;99651.38;;;6.74;100.00
17260;BME280;8746;49.230;9.220;2023-03-18T07:37:14;99648.63;;;6.78;100.00
17260;BME280;8746;49.230;9.220;2023-03-18T07:39:39;99651.75;;;6.90;100.00
17260;BME280;8746;49.230;9.220;2023-03-18T07:42:05;99655.59;;;7.09;100.00
17260;BME280;8746;49.230;9.220;2023-03-18T07:44:30;99658.88;;;7.15;98.95
17260;BME280;8746;49.230;9.220;2023-03-18T07:46:56;99659.81;;;7.41;98.75
17260;BME280;8746;49.230;9.220;2023-03-18T07:49:22;99657.63;;;7.56;97.61
17260;BME280;8746;49.230;9.220;2023-03-18T07:51:48;99653.81;;;7.66;97.56
17260;BME280;8746;49.230;9.220;2023-03-18T07:54:14;99659.41;;;7.82;96.55
17260;BME280;8746;49.230;9.220;2023-03-18T07:56:39;99654.59;;;7.95;94.51
17260;BME280;8746;49.230;9.220;2023-03-18T07:59:05;99652.78;;;7.97;93.68
17260;BME280;8746;49.230;9.220;2023-03-18T08:01:31;99651.06;;;7.96;93.09
17260;BME280;8746;49.230;9.220;2023-03-18T08:03:57;99654.28;;;8.04;92.69
17260;BME280;8746;49.230;9.220;2023-03-18T08:06:23;99653.56;;;8.24;92.86
17260;BME280;8746;49.230;9.220;2023-03-18T08:08:49;99650.94;;;8.24;91.95
17260;BME280;8746;49.230;9.220;2023-03-18T08:11:15;99656.94;;;8.28;91.21
17260;BME280;8746;49.230;9.220;2023-03-18T08:13:40;99660.28;;;8.33;90.24
17260;BME280;8746;49.230;9.220;2023-03-18T08:16:06;99664.03;;;8.51;88.84
17260;BME280;8746;49.230;9.220;2023-03-18T08:18:31;99668.97;;;8.60;89.52
17260;BME280;8746;49.230;9.220;2023-03-18T08:20:56;99663.38;;;8.70;89.29
17260;BME280;8746;49.230;9.220;2023-03-18T08:23:22;99673.44;;;8.82;89.18
17260;BME280;8746;49.230;9.220;2023-03-18T08:25:49;99668.47;;;8.98;86.17
17260;BME280;8746;49.230;9.220;2023-03-18T08:28:15;99670.41;;;9.39;85.28
17260;BME280;8746;49.230;9.220;2023-03-18T08:30:41;99664.81;;;9.69;83.17
17260;BME280;8746;49.230;9.220;2023-03-18T08:33:06;99671.13;;;9.65;82.00
17260;BME280;8746;49.230;9.220;2023-03-18T08:35:33;99667.19;;;9.75;82.55
17260;BME280;8746;49.230;9.220;2023-03-18T08:37:59;99663.81;;;9.93;79.37
17260;BME280;8746;49.230;9.220;2023-03-18T08:40:25;99678.22;;;10.05;78.87
17260;BME280;8746;49.230;9.220;2023-03-18T08:42:51;99670.47;;;10.02;80.15
17260;BME280;8746;49.230;9.220;2023-03-18T08:45:17;99673.81;;;10.06;80.51
17260;BME280;8746;49.230;9.220;2023-03-18T08:47:43;99666.84;;;10.05;80.41
17260;BME280;8746;49.230;9.220;2023-03-18T08:50:09;99668.28;;;10.33;83.45
17260;BME280;8746;49.230;9.220;2023-03-18T08:52:35;99666.84;;;10.46;79.56
17260;BME280;8746;49.230;9.220;2023-03-18T08:55:03;99660.03;;;10.61;78.82
17260;BME280;8746;49.230;9.220;2023-03-18T08:57:29;99650.31;;;10.62;77.66
17260;BME280;8746;49.230;9.220;2023-03-18T08:59:54;99657.03;;;10.50;75.57
17260;BME280;8746;49.230;9.220;2023-03-18T09:02:19;99651.66;;;10.31;77.45
17260;BME280;8746;49.230;9.220;2023-03-18T09:04:45;99646.28;;;10.34;78.20
17260;BME280;8746;49.230;9.220;2023-03-18T09:07:12;99649.03;;;10.51;78.55
17260;BME280;8746;49.230;9.220;2023-03-18T09:09:39;99654.00;;;10.78;78.66
17260;BME280;8746;49.230;9.220;2023-03-18T09:12:05;99646.84;;;10.99;77.14
17260;BME280;8746;49.230;9.220;2023-03-18T09:14:31;99653.66;;;11.05;75.40
17260;BME280;8746;49.230;9.220;2023-03-18T09:16:57;99653.84;;;11.19;74.00
17260;BME280;8746;49.230;9.220;2023-03-18T09:19:24;99645.88;;;11.38;74.31
17260;BME280;8746;49.230;9.220;2023-03-18T09:21:50;99648.19;;;11.64;72.78
17260;BME280;8746;49.230;9.220;2023-03-18T09:24:15;99646.25;;;11.67;69.72
17260;BME280;8746;49.230;9.220;2023-03-18T09:26:40;99636.94;;;11.78;69.61
17260;BME280;8746;49.230;9.220;2023-03-18T09:29:06;99646.00;;;12.09;69.47
17260;BME280;8746;49.230;9.220;2023-03-18T09:31:31;99646.44;;;12.34;68.02
17260;BME280;8746;49.230;9.220;2023-03-18T09:33:57;99640.41;;;12.48;65.82
17260;BME280;8746;49.230;9.220;2023-03-18T09:36:22;99640.06;;;12.55;65.57
17260;BME280;8746;49.230;9.220;2023-03-18T09:38:48;99636.78;;;12.83;64.58
17260;BME280;8746;49.230;9.220;2023-03-18T09:41:25;99636.28;;;13.08;62.35
17260;BME280;8746;49.230;9.220;2023-03-18T09:44:01;99630.50;;;13.34;61.06
17260;BME280;8746;49.230;9.220;2023-03-18T09:55:00;99610.59;;;13.73;57.35
17260;BME280;8746;49.230;9.220;2023-03-18T09:57:36;99615.16;;;14.30;56.01
17260;BME280;8746;49.230;9.220;2023-03-18T10:00:17;99615.25;;;14.57;53.49
17260;BME280;8746;49.230;9.220;2023-03-18T10:02:52;99603.25;;;14.66;54.25
17260;BME280;8746;49.230;9.220;2023-03-18T10:05:31;99618.09;;;14.25;54.20
17260;BME280;8746;49.230;9.220;2023-03-18T10:08:01;99604.53;;;14.59;53.63
17260;BME280;8746;49.230;9.220;2023-03-18T10:10:35;99613.66;;;14.55;53.27
17260;BME280;8746;49.230;9.220;2023-03-18T10:15:46;99602.81;;;14.58;52.78
17260;BME280;8746;49.230;9.220;2023-03-18T10:26:23;99594.72;;;16.37;46.93
17260;BME280;8746;49.230;9.220;2023-03-18T10:32:01;99598.06;;;17.03;44.21
17260;BME280;8746;49.230;9.220;2023-03-18T10:40:10;99596.25;;;17.28;46.15
17260;BME280;8746;49.230;9.220;2023-03-18T10:42:36;99600.31;;;17.21;45.66
17260;BME280;8746;49.230;9.220;2023-03-18T10:47:44;99598.72;;;16.94;45.65
17260;BME280;8746;49.230;9.220;2023-03-18T10:50:30;99594.75;;;16.87;46.90
17260;BME280;8746;49.230;9.220;2023-03-18T10:53:22;99583.44;;;17.44;46.67
17260;BME280;8746;49.230;9.220;2023-03-18T10:56:08;99585.28;;;18.15;44.79
17260;BME280;8746;49.230;9.220;2023-03-18T10:58:33;99579.66;;;18.07;43.58
17260;BME280;8746;49.230;9.220;2023-03-18T11:00:59;99573.94;;;17.89;43.12
17260;BME280;8746;49.230;9.220;2023-03-18T11:03:44;99567.78;;;17.04;43.71
17260;BME280;8746;49.230;9.220;2023-03-18T11:06:18;99567.38;;;17.46;45.07
17260;BME280;8746;49.230;9.220;2023-03-18T11:08:47;99571.16;;;18.02;43.90
17260;BME280;8746;49.230;9.220;2023-03-18T11:13:53;99575.34;;;18.29;42.56
17260;BME280;8746;49.230;9.220;2023-03-18T11:18:53;99571.09;;;18.49;43.17
17260;BME280;8746;49.230;9.220;2023-03-18T11:21:19;99571.94;;;18.61;40.50
17260;BME280;8746;49.230;9.220;2023-03-18T11:24:20;99564.22;;;19.13;41.20
17260;BME280;8746;49.230;9.220;2023-03-18T11:26:58;99554.38;;;19.46;39.13
17260;BME280;8746;49.230;9.220;2023-03-18T11:29:26;99551.47;;;19.70;37.85
17260;BME280;8746;49.230;9.220;2023-03-18T11:31:57;99555.03;;;19.59;38.44
17260;BME280;8746;49.230;9.220;2023-03-18T11:34:25;99555.25;;;19.67;37.86
17260;BME280;8746;49.230;9.220;2023-03-18T11:36:56;99550.69;;;20.00;37.51
17260;BME280;8746;49.230;9.220;2023-03-18T11:39:24;99548.00;;;19.58;38.98
17260;BME280;8746;49.230;9.220;2023-03-18T11:41:51;99543.91;;;19.43;39.09
17260;BME280;8746;49.230;9.220;2023-03-18T11:44:22;99535.88;;;19.43;39.06
17260;BME280;8746;49.230;9.220;2023-03-18T11:46:53;99535.84;;;19.54;39.52
17260;BME280;8746;49.230;9.220;2023-03-18T11:49:25;99533.03;;;19.77;37.66
17260;BME280;8746;49.230;9.220;2023-03-18T12:02:48;99527.03;;;18.32;41.06
17260;BME280;8746;49.230;9.220;2023-03-18T12:11:15;99510.31;;;17.71;43.27
17260;BME280;8746;49.230;9.220;2023-03-18T12:13:56;99513.25;;;17.33;43.16
17260;BME280;8746;49.230;9.220;2023-03-18T12:21:48;99510.78;;;17.65;42.04
17260;BME280;8746;49.230;9.220;2023-03-18T12:24:50;99508.75;;;17.69;41.75
17260;BME280;8746;49.230;9.220;2023-03-18T12:27:31;99505.31;;;17.55;42.28
17260;BME280;8746;49.230;9.220;2023-03-18T12:32:34;99499.63;;;17.60;42.65
17260;BME280;8746;49.230;9.220;2023-03-18T12:38:01;99496.16;;;17.82;42.42
17260;BME280;8746;49.230;9.220;2023-03-18T12:40:39;99490.88;;;17.58;42.43
17260;BME280;8746;49.230;9.220;2023-03-18T12:45:52;99492.38;;;17.62;42.67
17260;BME280;8746;49.230;9.220;2023-03-18T12:48:31;99487.59;;;17.54;43.28
17260;BME280;8746;49.230;9.220;2023-03-18T12:51:13;99488.00;;;17.61;42.50
17260;BME280;8746;49.230;9.220;2023-03-18T12:53:43;99480.47;;;17.55;42.67
17260;BME280;8746;49.230;9.220;2023-03-18T12:56:17;99478.16;;;17.50;41.50
17260;BME280;8746;49.230;9.220;2023-03-18T12:58:50;99482.09;;;17.33;42.78
17260;BME280;8746;49.230;9.220;2023-03-18T13:01:20;99481.44;;;17.54;42.73
17260;BME280;8746;49.230;9.220;2023-03-18T13:03:55;99475.63;;;17.71;42.62
17260;BME280;8746;49.230;9.220;2023-03-18T13:09:35;99467.13;;;17.55;42.90
17260;BME280;8746;49.230;9.220;2023-03-18T13:12:10;99464.03;;;17.25;42.06
17260;BME280;8746;49.230;9.220;2023-03-18T13:14:56;99457.63;;;17.28;43.45
17260;BME280;8746;49.230;9.220;2023-03-18T13:17:30;99464.19;;;17.35;41.96
17260;BME280;8746;49.230;9.220;2023-03-18T13:20:03;99473.16;;;17.45;42.93
17260;BME280;8746;49.230;9.220;2023-03-18T13:22:51;99465.31;;;17.55;42.36
17260;BME280;8746;49.230;9.220;2023-03-18T13:37:03;99462.50;;;17.45;41.97
17260;BME280;8746;49.230;9.220;2023-03-18T13:40:14;99459.97;;;17.55;42.39
17260;BME280;8746;49.230;9.220;2023-03-18T13:42:40;99452.78;;;17.44;44.13
17260;BME280;8746;49.230;9.220;2023-03-18T13:47:41;99453.19;;;17.74;43.08
17260;BME280;8746;49.230;9.220;2023-03-18T13:52:44;99442.81;;;17.93;42.76
17260;BME280;8746;49.230;9.220;2023-03-18T13:55:58;99460.31;;;17.98;42.03
17260;BME280;8746;49.230;9.220;2023-03-18T13:58:29;99449.38;;;18.01;41.25
17260;BME280;8746;49.230;9.220;2023-03-18T14:01:26;99454.09;;;17.97;41.61
17260;BME280;8746;49.230;9.220;2023-03-18T14:03:59;99456.75;;;17.74;40.04
17260;BME280;8746;49.230;9.220;2023-03-18T14:11:51;99443.41;;;18.42;41.27
17260;BME280;8746;49.230;9.220;2023-03-18T14:14:40;99438.78;;;18.33;40.45
17260;BME280;8746;49.230;9.220;2023-03-18T14:17:15;99432.91;;;18.62;39.78
17260;BME280;8746;49.230;9.220;2023-03-18T14:19:42;99429.81;;;18.34;39.35
17260;BME280;8746;49.230;9.220;2023-03-18T14:24:44;99431.28;;;18.27;39.37
17260;BME280;8746;49.230;9.220;2023-03-18T14:27:20;99420.03;;;18.12;40.68
17260;BME280;8746;49.230;9.220;2023-03-18T14:29:46;99425.69;;;18.19;41.18
17260;BME280;8746;49.230;9.220;2023-03-18T14:37:32;99420.50;;;18.06;40.45
17260;BME280;8746;49.230;9.220;2023-03-18T14:40:18;99413.09;;;17.98;39.97
17260;BME280;8746;49.230;9.220;2023-03-18T14:42:58;99411.41;;;17.97;39.96
17260;BME280;8746;49.230;9.220;2023-03-18T14:45:34;99407.53;;;18.01;39.39
17260;BME280;8746;49.230;9.220;2023-03-18T14:50:43;99410.66;;;18.06;41.29
17260;BME280;8746;49.230;9.220;2023-03-18T14:53:19;99410.44;;;18.09;40.70
17260;BME280;8746;49.230;9.220;2023-03-18T14:55:47;99406.06;;;18.08;40.91
17260;BME280;8746;49.230;9.220;2023-03-18T14:58:17;99411.28;;;18.10;39.61
17260;BME280;8746;49.230;9.220;2023-03-18T15:00:44;99408.75;;;18.08;39.69
17260;BME280;8746;49.230;9.220;2023-03-18T15:03:31;99401.94;;;18.16;41.63
17260;BME280;8746;49.230;9.220;2023-03-18T15:06:02;99403.34;;;18.31;42.50